createdAt,value
2019-05-16T00:02:34.340Z,102358.80
2019-05-16T00:06:38.876Z,102362.90
2019-05-16T00:10:40.467Z,102363.88
2019-05-16T00:14:42.908Z,102359.16
2019-05-16T00:18:45.042Z,102366.31
2019-05-16T00:22:48.661Z,102367.45
2019-05-16T00:26:50.960Z,102371.80
2019-05-16T00:30:52.951Z,102368.57
2019-05-16T00:34:55.267Z,102368.65
2019-05-16T00:38:57.863Z,102373.64
2019-05-16T00:43:00.396Z,102380.30
2019-05-16T00:47:02.502Z,102379.16
2019-05-16T00:51:07.829Z,102377.59
2019-05-16T00:55:09.846Z,102372.11
2019-05-16T00:59:12.346Z,102377.89
2019-05-16T01:03:14.419Z,102370.89
2019-05-16T01:07:18.657Z,102368.61
2019-05-16T01:11:20.556Z,102367.52
2019-05-16T01:15:22.734Z,102366.11
2019-05-16T01:19:24.855Z,102365.01
2019-05-16T01:23:28.258Z,102370.11
2019-05-16T01:27:30.545Z,102361.95
2019-05-16T01:31:32.677Z,102362.58
2019-05-16T01:35:34.904Z,102362.14
2019-05-16T01:39:38.171Z,102364.65
2019-05-16T01:43:40.376Z,102354.17
2019-05-16T01:47:45.270Z,102354.69
2019-05-16T01:51:48.442Z,102355.13
2019-05-16T01:55:50.739Z,102357.69
2019-05-16T01:59:52.798Z,102357.69
2019-05-16T02:03:54.890Z,102353.31
2019-05-16T02:07:58.658Z,102352.92
2019-05-16T02:12:00.898Z,102354.61
2019-05-16T02:16:03.042Z,102361.13
2019-05-16T02:20:05.594Z,102359.81
2019-05-16T02:24:08.918Z,102360.16
2019-05-16T02:28:11.132Z,102359.23
2019-05-16T02:32:13.191Z,102354.33
2019-05-16T02:36:15.214Z,102357.77
2019-05-16T02:40:22.308Z,102354.48
2019-05-16T02:44:25.027Z,102352.80
2019-05-16T02:48:31.845Z,102347.16
2019-05-16T02:52:31.993Z,102350.61
2019-05-16T02:56:34.163Z,102351.39
2019-05-16T03:00:42.075Z,102351.24
2019-05-16T03:04:44.332Z,102345.91
2019-05-16T03:08:50.691Z,102347.07
2019-05-16T03:12:52.874Z,102343.69
2019-05-16T03:17:00.855Z,102338.47
2019-05-16T03:21:02.469Z,102347.46
2019-05-16T03:25:04.629Z,102347.61
2019-05-16T03:29:07.221Z,102345.35
2019-05-16T03:33:14.251Z,102338.42
2019-05-16T03:37:14.501Z,102337.73
2019-05-16T03:41:16.937Z,102343.95
2019-05-16T03:45:21.254Z,102342.53
2019-05-16T03:49:23.005Z,102342.36
2019-05-16T03:53:25.178Z,102343.02
2019-05-16T03:57:30.446Z,102350.02
2019-05-16T04:01:31.554Z,102340.16
2019-05-16T04:05:33.763Z,102342.48
2019-05-16T04:09:35.990Z,102339.52
2019-05-16T04:13:41.117Z,102338.86
2019-05-16T04:17:41.888Z,102338.80
2019-05-16T04:21:43.925Z,102344.19
2019-05-16T04:25:46.031Z,102339.66
2019-05-16T04:29:51.066Z,102334.20
2019-05-16T04:33:52.084Z,102331.20
2019-05-16T04:37:54.237Z,102326.20
2019-05-16T04:41:56.221Z,102333.89
2019-05-16T04:46:01.359Z,102329.72
2019-05-16T04:50:06.460Z,102336.89
2019-05-16T04:54:11.325Z,102336.30
2019-05-16T04:58:13.177Z,102338.27
2019-05-16T05:02:15.562Z,102338.96
2019-05-16T05:06:20.615Z,102326.34
2019-05-16T05:10:21.500Z,102333.02
2019-05-16T05:14:23.702Z,102336.78
2019-05-16T05:18:25.821Z,102336.28
2019-05-16T05:22:30.309Z,102332.16
2019-05-16T05:26:31.729Z,102337.28
2019-05-16T05:30:33.727Z,102346.33
2019-05-16T05:34:35.842Z,102345.92
2019-05-16T05:38:40.261Z,102340.33
2019-05-16T05:42:42.052Z,102334.23
2019-05-16T05:46:44.082Z,102336.92
2019-05-16T05:50:46.175Z,102337.55
2019-05-16T05:54:50.297Z,102343.23
2019-05-16T05:58:53.075Z,102347.52
2019-05-16T06:02:55.151Z,102342.66
2019-05-16T06:06:57.402Z,102342.88
2019-05-16T06:11:00.798Z,102345.94
2019-05-16T06:15:07.828Z,102347.38
2019-05-16T06:19:06.854Z,102350.94
2019-05-16T06:23:10.621Z,102348.19
2019-05-16T06:27:12.829Z,102357.62
2019-05-16T06:31:14.730Z,102351.87
2019-05-16T06:35:16.840Z,102362.78
2019-05-16T06:39:19.901Z,102359.95
2019-05-16T06:43:22.062Z,102359.05
2019-05-16T06:47:24.283Z,102361.64
2019-05-16T06:51:26.413Z,102371.69
2019-05-16T06:55:29.621Z,102366.88
2019-05-16T06:59:31.840Z,102363.91
2019-05-16T07:03:34.033Z,102368.41
2019-05-16T07:07:36.061Z,102367.33
2019-05-16T07:11:39.769Z,102364.91
2019-05-16T07:15:41.936Z,102363.02
2019-05-16T07:19:44.066Z,102355.11
2019-05-16T07:23:46.607Z,102358.16
2019-05-16T07:27:51.094Z,102357.51
2019-05-16T07:31:52.559Z,102351.36
2019-05-16T07:35:54.616Z,102359.57
2019-05-16T07:39:56.578Z,102347.06
2019-05-16T07:44:00.985Z,102347.11
2019-05-16T07:48:02.565Z,102342.80
2019-05-16T07:52:04.736Z,102338.84
2019-05-16T07:56:06.456Z,102343.45
2019-05-16T08:00:09.749Z,102350.78
2019-05-16T08:04:11.688Z,102349.55
2019-05-16T08:08:13.768Z,102344.70
2019-05-16T08:12:15.926Z,102345.34
2019-05-16T08:16:20.789Z,102340.52
2019-05-16T08:20:23.322Z,102337.07
2019-05-16T08:24:25.349Z,102330.64
2019-05-16T08:28:30.560Z,102332.63
2019-05-16T08:32:31.603Z,102334.56
2019-05-16T08:36:33.634Z,102336.59
2019-05-16T08:41:01.006Z,102334.92
2019-05-16T08:44:41.853Z,102331.15
2019-05-16T08:48:46.757Z,102326.30
2019-05-16T08:52:52.893Z,102324.30
2019-05-16T08:56:55.735Z,102318.31
2019-05-16T09:01:01.920Z,102315.23
2019-05-16T09:05:04.996Z,102315.36
2019-05-16T09:09:26.629Z,102305.84
2019-05-16T09:13:10.682Z,102312.58
2019-05-16T09:17:12.925Z,102307.13
2019-05-16T09:21:17.981Z,102316.67
2019-05-16T09:25:18.836Z,102305.64
2019-05-16T09:29:20.815Z,102309.56
2019-05-16T09:33:26.754Z,102306.08
2019-05-16T09:37:28.361Z,102306.14
2019-05-16T09:41:46.243Z,102299.20
2019-05-16T09:45:37.798Z,102291.13
2019-05-16T09:49:39.440Z,102297.17
2019-05-16T09:53:41.610Z,102294.60
2019-05-16T09:57:43.724Z,102294.86
2019-05-16T10:01:47.717Z,102282.97
2019-05-16T10:05:49.612Z,102282.93
2019-05-16T10:09:51.422Z,102277.51
2019-05-16T10:13:53.543Z,102270.34
2019-05-16T10:17:57.507Z,102271.25
2019-05-16T10:22:00.307Z,102264.64
2019-05-16T10:26:03.546Z,102263.05
2019-05-16T10:30:08.654Z,102264.05
2019-05-16T10:34:11.032Z,102257.72
2019-05-16T10:38:13.177Z,102254.92
2019-05-16T10:42:27.232Z,102249.86
2019-05-16T10:46:18.738Z,102248.76
2019-05-16T10:50:21.304Z,102242.12
2019-05-16T10:54:23.562Z,102232.73
2019-05-16T10:58:36.504Z,102230.88
2019-05-16T11:02:29.322Z,102218.12
2019-05-16T11:06:31.659Z,102213.97
2019-05-16T11:10:37.136Z,102220.45
2019-05-16T11:14:38.765Z,102227.35
2019-05-16T11:18:40.605Z,102222.23
2019-05-16T11:22:42.469Z,102213.94
2019-05-16T11:26:44.565Z,102211.38
2019-05-16T11:30:47.625Z,102209.40
2019-05-16T11:34:49.849Z,102203.24
2019-05-16T11:38:51.938Z,102202.78
2019-05-16T11:43:06.514Z,102204.50
2019-05-16T11:46:58.592Z,102203.19
2019-05-16T11:51:00.697Z,102201.42
2019-05-16T11:55:02.809Z,102201.74
2019-05-16T11:59:07.633Z,102206.58
2019-05-16T12:03:08.737Z,102194.26
2019-05-16T12:07:10.746Z,102195.37
2019-05-16T12:11:12.729Z,102182.39
2019-05-16T12:15:19.722Z,102179.98
2019-05-16T12:19:19.230Z,102183.43
2019-05-16T12:23:22.813Z,102176.05
2019-05-16T12:27:32.974Z,102172.03
2019-05-16T12:31:32.492Z,102172.05
2019-05-16T12:35:33.126Z,102171.09
2019-05-16T12:39:37.647Z,102165.05
2019-05-16T12:43:48.993Z,102160.87
2019-05-16T12:47:47.049Z,102162.94
2019-05-16T12:51:48.459Z,102153.97
2019-05-16T12:55:50.583Z,102150.29
2019-05-16T12:59:52.802Z,102139.47
2019-05-16T13:03:54.989Z,102135.59
2019-05-16T13:07:57.083Z,102134.06
2019-05-16T13:11:59.133Z,102122.70
2019-05-16T13:16:01.249Z,102121.58
2019-05-16T13:20:03.351Z,102114.55
2019-05-16T13:24:06.927Z,102125.64
2019-05-16T13:28:09.165Z,102126.86
2019-05-16T13:32:11.391Z,102114.84
2019-05-16T13:36:13.527Z,102117.83
2019-05-16T13:40:17.105Z,102120.48
2019-05-16T13:44:22.995Z,102115.27
2019-05-16T13:48:23.073Z,102108.60
2019-05-16T13:52:28.227Z,102103.66
2019-05-16T13:56:29.153Z,102106.55
2019-05-16T14:00:31.210Z,102095.69
2019-05-16T14:04:33.265Z,102102.86
2019-05-16T14:08:37.351Z,102096.01
2019-05-16T14:12:39.220Z,102090.26
2019-05-16T14:16:41.492Z,102084.13
2019-05-16T14:20:46.466Z,102081.90
2019-05-16T14:24:48.381Z,102083.95
2019-05-16T14:28:50.701Z,102080.72
2019-05-16T14:32:52.888Z,102075.34
2019-05-16T14:36:57.714Z,102076.20
2019-05-16T14:40:58.728Z,102063.89
2019-05-16T14:45:10.741Z,102053.05
2019-05-16T14:49:07.666Z,102056.93
2019-05-16T14:53:09.996Z,102058.26
2019-05-16T14:57:12.083Z,102050.91
2019-05-16T15:01:14.218Z,102047.11
2019-05-16T15:05:16.428Z,102045.50
2019-05-16T15:09:18.380Z,102036.10
2019-05-16T15:13:20.135Z,102040.45
2019-05-16T15:17:21.942Z,102038.48
2019-05-16T15:21:23.869Z,102041.14
2019-05-16T15:25:26.638Z,102038.99
2019-05-16T15:29:28.506Z,102042.34
2019-05-16T15:33:30.299Z,102048.22
2019-05-16T15:37:32.062Z,102043.45
2019-05-16T15:41:36.289Z,102049.23
2019-05-16T15:45:43.461Z,102043.28
2019-05-16T15:49:47.741Z,102044.58
2019-05-16T15:53:50.355Z,102046.38
2019-05-16T15:57:52.472Z,102042.20
2019-05-16T16:01:54.558Z,102039.84
2019-05-16T16:05:56.828Z,102049.41
2019-05-16T16:09:58.972Z,102042.22
2019-05-16T16:14:01.265Z,102041.77
2019-05-16T16:18:03.556Z,102045.27
2019-05-16T16:22:07.690Z,102038.84
2019-05-16T16:26:10.689Z,102034.20
2019-05-16T16:30:14.092Z,102032.27
2019-05-16T16:34:17.559Z,102026.61
2019-05-16T16:38:24.121Z,102028.51
2019-05-16T16:42:27.249Z,102024.91
2019-05-16T16:46:34.066Z,102023.27
2019-05-16T16:50:39.531Z,102021.77
2019-05-16T16:54:44.635Z,102019.41
2019-05-16T16:58:46.747Z,102016.83
2019-05-16T17:03:02.117Z,102019.37
2019-05-16T17:06:53.418Z,102026.44
2019-05-16T17:10:57.298Z,102025.30
2019-05-16T17:14:58.662Z,102032.14
2019-05-16T17:19:00.504Z,102023.77
2019-05-16T17:23:02.257Z,102032.72
2019-05-16T17:27:07.684Z,102036.31
2019-05-16T17:31:08.203Z,102034.55
2019-05-16T17:35:10.939Z,102033.34
2019-05-16T17:39:12.716Z,102037.08
2019-05-16T17:43:16.441Z,102038.84
2019-05-16T17:47:18.499Z,102042.70
2019-05-16T17:51:42.566Z,102049.93
2019-05-16T17:55:47.030Z,102044.20
2019-05-16T17:59:49.181Z,102051.53
2019-05-16T18:03:50.921Z,102043.34
2019-05-16T18:07:52.757Z,102040.16
2019-05-16T18:11:56.993Z,102037.23
2019-05-16T18:15:58.674Z,102040.38
2019-05-16T18:20:00.810Z,102035.82
2019-05-16T18:24:03.365Z,102042.36
2019-05-16T18:28:07.778Z,102039.08
2019-05-16T18:32:09.448Z,102050.61
2019-05-16T18:36:12.511Z,102052.73
2019-05-16T18:40:16.611Z,102055.81
2019-05-16T18:44:19.565Z,102058.92
2019-05-16T18:48:22.050Z,102060.64
2019-05-16T18:52:24.205Z,102062.22
2019-05-16T18:56:27.165Z,102066.52
2019-05-16T19:00:29.096Z,102072.73
2019-05-16T19:04:31.274Z,102069.48
2019-05-16T19:08:33.282Z,102068.48
2019-05-16T19:12:37.170Z,102075.39
2019-05-16T19:16:38.782Z,102078.30
2019-05-16T19:20:46.006Z,102075.98
2019-05-16T19:24:47.784Z,102075.47
2019-05-16T19:28:49.606Z,102077.98
2019-05-16T19:32:51.532Z,102088.09
2019-05-16T19:36:53.317Z,102086.34
2019-05-16T19:40:57.529Z,102085.02
2019-05-16T19:44:59.801Z,102086.71
2019-05-16T19:49:01.552Z,102085.95
2019-05-16T19:53:07.331Z,102091.84
2019-05-16T19:57:08.526Z,102089.04
2019-05-16T20:01:10.316Z,102092.36
2019-05-16T20:05:13.289Z,102087.64
2019-05-16T20:09:16.592Z,102085.80
2019-05-16T20:13:18.483Z,102094.05
2019-05-16T20:17:20.267Z,102092.75
2019-05-16T20:21:22.117Z,102092.39
2019-05-16T20:25:23.936Z,102093.95
2019-05-16T20:29:27.338Z,102093.14
2019-05-16T20:33:29.265Z,102090.83
2019-05-16T20:37:31.025Z,102089.11
2019-05-16T20:41:32.820Z,102089.31
2019-05-16T20:45:36.169Z,102083.86
2019-05-16T20:49:38.067Z,102083.59
2019-05-16T20:53:40.069Z,102082.05
2019-05-16T20:57:41.865Z,102085.92
2019-05-16T21:01:46.497Z,102084.91
2019-05-16T21:05:48.325Z,102083.27
2019-05-16T21:09:51.107Z,102080.37
2019-05-16T21:13:52.864Z,102084.92
2019-05-16T21:17:56.714Z,102087.52
2019-05-16T21:21:58.608Z,102086.72
2019-05-16T21:26:00.718Z,102089.32
2019-05-16T21:30:02.907Z,102085.15
2019-05-16T21:34:07.054Z,102081.42
2019-05-16T21:38:09.085Z,102086.58
2019-05-16T21:42:11.272Z,102090.07
2019-05-16T21:46:13.482Z,102092.83
2019-05-16T21:50:16.330Z,102092.17
2019-05-16T21:54:20.092Z,102095.08
2019-05-16T21:58:22.033Z,102093.32
2019-05-16T22:02:26.397Z,102097.34
2019-05-16T22:06:29.338Z,102096.17
2019-05-16T22:10:31.626Z,102095.55
2019-05-16T22:14:40.823Z,102106.20
2019-05-16T22:18:42.978Z,102096.62
2019-05-16T22:22:46.910Z,102096.47
2019-05-16T22:26:48.789Z,102095.57
2019-05-16T22:30:51.135Z,102096.86
2019-05-16T22:34:53.265Z,102099.61
2019-05-16T22:38:56.804Z,102094.40
2019-05-16T22:42:59.177Z,102088.98
2019-05-16T22:47:01.173Z,102091.34
2019-05-16T22:51:03.196Z,102091.25
2019-05-16T22:55:07.465Z,102097.36
2019-05-16T22:59:09.959Z,102098.82
2019-05-16T23:03:12.137Z,102097.95
2019-05-16T23:07:16.418Z,102093.24
2019-05-16T23:11:17.975Z,102092.51
2019-05-16T23:15:20.575Z,102084.11
2019-05-16T23:19:22.850Z,102085.62
2019-05-16T23:23:26.583Z,102080.13
2019-05-16T23:27:28.809Z,102088.25
2019-05-16T23:31:31.014Z,102090.28
2019-05-16T23:35:33.378Z,102086.36
2019-05-16T23:39:37.761Z,102083.72
2019-05-16T23:43:39.395Z,102079.70
2019-05-16T23:47:41.502Z,102083.59
2019-05-16T23:51:43.637Z,102080.78
2019-05-16T23:55:47.102Z,102079.94
2019-05-16T23:59:50.352Z,102085.52
